Time;durP1;ratioP1;P1;durP2;ratioP2;P2;SDS_P1;SDS_P2;PMS_P1;PMS_P2;Temp;Humidity;BMP_temperature;BMP_pressure;BME280_temperature;BME280_humidity;BME280_pressure;Samples;Min_cycle;Max_cycle;Signal;HPM_P1;HPM_P2
2022/06/19 00:01:45;;;;;;;20.87;4.17;;;14.90;99.90;;;;;;5038106;28;20439;-52
2022/06/19 00:04:12;;;;;;;14.73;4.00;;;14.90;99.90;;;;;;5036410;28;20515;-52
2022/06/19 00:06:39;;;;;;;19.83;4.40;;;14.90;99.90;;;;;;5039383;28;20186;-52
2022/06/19 00:09:06;;;;;;;21.30;4.40;;;14.80;99.90;;;;;;5032007;28;20431;-52
2022/06/19 00:11:33;;;;;;;19.03;4.70;;;14.80;99.90;;;;;;5040591;28;20977;-53
2022/06/19 00:14:00;;;;;;;18.03;3.70;;;14.80;99.90;;;;;;5032752;28;20482;-52
2022/06/19 00:16:25;;;;;;;13.33;4.03;;;14.80;99.90;;;;;;5038633;28;20524;-51
2022/06/19 00:18:51;;;;;;;16.20;4.37;;;14.80;99.90;;;;;;5046170;28;20563;-52
2022/06/19 00:21:17;;;;;;;15.57;4.67;;;14.70;99.90;;;;;;5027203;28;20223;-52
2022/06/19 00:23:45;;;;;;;17.17;4.10;;;14.70;99.90;;;;;;5036991;28;20642;-52
2022/06/19 00:26:14;;;;;;;17.47;5.27;;;14.60;99.90;;;;;;5045804;28;20187;-52
2022/06/19 00:28:40;;;;;;;17.47;4.10;;;14.50;99.90;;;;;;5038894;28;20807;-52
2022/06/19 00:31:07;;;;;;;20.77;4.67;;;14.50;99.90;;;;;;5042362;28;20815;-52
2022/06/19 00:33:33;;;;;;;20.27;4.30;;;14.40;99.90;;;;;;5036266;28;20436;-52
2022/06/19 00:35:58;;;;;;;21.10;4.27;;;14.40;99.90;;;;;;5039435;28;20441;-52
2022/06/19 00:38:24;;;;;;;11.67;3.90;;;14.40;99.90;;;;;;5036003;28;20232;-52
2022/06/19 00:40:50;;;;;;;19.47;4.20;;;14.30;99.90;;;;;;5040118;28;20248;-52
2022/06/19 00:43:15;;;;;;;14.67;3.60;;;14.20;99.90;;;;;;5029514;28;20214;-52
2022/06/19 00:45:50;;;;;;;18.77;3.77;;;14.20;99.90;;;;;;5064945;28;20269;-52
2022/06/19 00:48:19;;;;;;;16.80;4.10;;;14.20;99.90;;;;;;5036225;28;20584;-52
2022/06/19 00:50:47;;;;;;;17.63;3.70;;;14.20;99.90;;;;;;5040059;28;20422;-52
2022/06/19 00:53:40;;;;;;;14.30;3.73;;;14.10;99.90;;;;;;5032863;28;20449;-52
2022/06/19 00:56:10;;;;;;;12.37;3.60;;;14.10;99.90;;;;;;5025033;28;20965;-52
2022/06/19 00:58:39;;;;;;;16.10;4.40;;;14.10;99.90;;;;;;5035121;28;20476;-52
2022/06/19 01:01:13;;;;;;;16.27;4.30;;;14.10;99.90;;;;;;5036736;28;20474;-52
2022/06/19 01:03:50;;;;;;;18.20;3.47;;;14.10;99.90;;;;;;5033658;28;20442;-52
2022/06/19 01:06:15;;;;;;;16.90;4.60;;;14.10;99.90;;;;;;5036176;28;20566;-52
2022/06/19 01:08:41;;;;;;;15.23;4.33;;;14.10;99.90;;;;;;5058304;28;20533;-52
2022/06/19 01:11:08;;;;;;;20.27;4.00;;;14.00;99.90;;;;;;5034274;28;20324;-52
2022/06/19 01:13:34;;;;;;;22.77;4.13;;;14.00;99.90;;;;;;5027790;28;20678;-52
2022/06/19 01:16:01;;;;;;;20.13;4.40;;;13.90;99.90;;;;;;5033915;28;20449;-52
2022/06/19 01:18:29;;;;;;;26.50;4.10;;;13.90;99.90;;;;;;5037461;28;20471;-52
2022/06/19 01:21:00;;;;;;;10.57;3.67;;;13.90;99.90;;;;;;5041850;28;20440;-52
2022/06/19 01:23:54;;;;;;;29.40;4.00;;;13.90;99.90;;;;;;5035563;28;20444;-52
2022/06/19 01:26:21;;;;;;;18.43;4.00;;;13.90;99.90;;;;;;5039854;28;20441;-52
2022/06/19 01:28:56;;;;;;;20.67;4.40;;;13.80;99.90;;;;;;5031146;28;20436;-52
2022/06/19 01:31:35;;;;;;;21.53;4.63;;;13.80;99.90;;;;;;5034338;28;20500;-52
2022/06/19 01:34:28;;;;;;;16.53;3.93;;;13.80;99.90;;;;;;5042359;28;20646;-52
2022/06/19 01:37:16;;;;;;;27.53;4.30;;;13.70;99.90;;;;;;5041683;28;20813;-52
2022/06/19 01:39:46;;;;;;;26.23;3.50;;;13.70;99.90;;;;;;5042455;28;20428;-52
2022/06/19 01:42:13;;;;;;;14.43;3.83;;;13.70;99.90;;;;;;5031250;28;20444;-52
2022/06/19 01:44:40;;;;;;;21.53;4.13;;;13.70;99.90;;;;;;5040363;28;20428;-52
2022/06/19 01:47:06;;;;;;;20.63;4.27;;;13.60;99.90;;;;;;5029448;28;20905;-52
2022/06/19 01:49:34;;;;;;;18.73;4.20;;;13.60;99.90;;;;;;5038794;28;20504;-52
2022/06/19 01:52:01;;;;;;;16.17;3.63;;;13.60;99.90;;;;;;5042452;28;21004;-52
2022/06/19 01:54:33;;;;;;;16.50;3.87;;;13.50;99.90;;;;;;5044528;28;20437;-52
2022/06/19 01:56:59;;;;;;;10.87;3.87;;;13.50;99.90;;;;;;5033857;28;20440;-52
2022/06/19 01:59:28;;;;;;;19.17;4.40;;;13.50;99.90;;;;;;5040757;28;20498;-52
2022/06/19 02:01:55;;;;;;;14.90;3.90;;;13.50;99.90;;;;;;5036295;28;20567;-52
2022/06/19 02:04:23;;;;;;;19.40;4.07;;;13.50;99.90;;;;;;5041604;28;20437;-52
2022/06/19 02:06:53;;;;;;;32.77;5.40;;;13.50;99.90;;;;;;5032251;28;20449;-52
2022/06/19 02:09:22;;;;;;;26.33;5.00;;;13.50;99.90;;;;;;5034311;28;20418;-52
2022/06/19 02:11:48;;;;;;;23.70;4.33;;;13.50;99.90;;;;;;5035162;28;20457;-52
2022/06/19 02:14:15;;;;;;;25.80;4.93;;;13.60;99.90;;;;;;5032973;28;20474;-52
2022/06/19 02:16:43;;;;;;;19.00;4.30;;;13.70;99.90;;;;;;5041318;28;20430;-52
2022/06/19 02:19:10;;;;;;;15.60;3.70;;;13.80;99.90;;;;;;5033590;28;20542;-53
2022/06/19 02:21:40;;;;;;;21.47;5.27;;;13.70;99.90;;;;;;5023778;28;20959;-52
2022/06/19 02:24:08;;;;;;;17.20;4.03;;;13.80;99.90;;;;;;5038608;28;20840;-52
2022/06/19 02:26:39;;;;;;;16.60;3.63;;;13.80;99.90;;;;;;5035463;28;21333;-52
2022/06/19 02:29:09;;;;;;;20.30;4.20;;;13.70;99.90;;;;;;5030421;28;20773;-52
2022/06/19 02:31:36;;;;;;;17.50;4.80;;;13.80;99.90;;;;;;5030173;28;21074;-52
2022/06/19 02:34:07;;;;;;;35.63;18.13;;;13.80;99.90;;;;;;5023062;28;20425;-52
2022/06/19 02:36:36;;;;;;;29.00;7.20;;;13.80;99.90;;;;;;5032507;28;20927;-52
2022/06/19 02:39:32;;;;;;;25.80;6.80;;;13.70;99.90;;;;;;5034539;28;20461;-52
2022/06/19 02:42:16;;;;;;;20.30;4.93;;;13.70;99.90;;;;;;5041058;28;20543;-52
2022/06/19 02:44:43;;;;;;;18.50;5.10;;;13.70;99.90;;;;;;5037438;28;20432;-51
2022/06/19 02:47:09;;;;;;;21.87;4.30;;;13.70;99.90;;;;;;5028666;28;20444;-51
2022/06/19 02:49:36;;;;;;;26.97;5.30;;;13.70;99.90;;;;;;5038297;28;20437;-51
2022/06/19 02:52:03;;;;;;;18.90;4.00;;;13.70;99.90;;;;;;5038461;28;20436;-51
2022/06/19 02:54:29;;;;;;;15.60;4.43;;;13.70;99.90;;;;;;5031803;28;20425;-51
2022/06/19 02:56:55;;;;;;;18.67;4.33;;;13.80;99.90;;;;;;5034516;28;20416;-51
2022/06/19 02:59:21;;;;;;;22.13;4.30;;;13.80;99.90;;;;;;5041332;28;20189;-51
2022/06/19 03:01:47;;;;;;;17.83;4.03;;;13.80;99.90;;;;;;5033596;28;21040;-51
2022/06/19 03:04:27;;;;;;;27.23;4.40;;;13.80;99.90;;;;;;5024811;28;20257;-51
2022/06/19 03:06:54;;;;;;;20.77;5.13;;;13.80;99.90;;;;;;5023207;28;20190;-51
2022/06/19 03:09:21;;;;;;;19.03;4.40;;;13.80;99.90;;;;;;5030476;28;20443;-51
2022/06/19 03:11:47;;;;;;;22.03;4.87;;;13.80;99.90;;;;;;5024674;28;20922;-51
2022/06/19 03:14:12;;;;;;;21.77;4.60;;;13.80;99.90;;;;;;5025272;28;20484;-51
2022/06/19 03:16:38;;;;;;;19.87;4.30;;;13.80;99.90;;;;;;5039162;28;20229;-51
2022/06/19 03:19:03;;;;;;;22.17;4.63;;;13.80;99.90;;;;;;5033971;28;20209;-51
2022/06/19 03:21:29;;;;;;;16.60;3.93;;;13.80;99.90;;;;;;5034249;28;20273;-51
2022/06/19 03:23:55;;;;;;;22.97;4.27;;;13.80;99.90;;;;;;5029831;28;20274;-51
2022/06/19 03:26:20;;;;;;;25.73;4.40;;;13.80;99.90;;;;;;5041896;28;20182;-51
2022/06/19 03:28:46;;;;;;;22.13;4.40;;;13.80;99.90;;;;;;5039049;28;20186;-51
2022/06/19 03:31:19;;;;;;;25.47;4.83;;;13.80;99.90;;;;;;5043923;28;20273;-51
2022/06/19 03:33:45;;;;;;;28.27;4.60;;;13.90;99.90;;;;;;5028959;28;20441;-51
2022/06/19 03:36:10;;;;;;;20.33;4.40;;;14.00;99.90;;;;;;5028112;28;20923;-51
2022/06/19 03:38:36;;;;;;;14.73;4.33;;;14.00;99.90;;;;;;5036260;28;20757;-51
2022/06/19 03:41:02;;;;;;;18.03;4.30;;;14.00;99.90;;;;;;5031788;28;20684;-51
2022/06/19 03:43:27;;;;;;;18.20;4.10;;;14.00;99.90;;;;;;5037166;28;20570;-51
2022/06/19 03:46:01;;;;;;;18.83;4.50;;;14.00;99.90;;;;;;5031410;28;20222;-51
2022/06/19 03:48:27;;;;;;;20.67;4.37;;;14.00;99.90;;;;;;5044442;28;20219;-52
2022/06/19 03:50:53;;;;;;;19.80;4.60;;;14.00;99.90;;;;;;5040069;28;21085;-52
2022/06/19 03:53:18;;;;;;;22.13;4.73;;;14.00;99.90;;;;;;5036071;28;20199;-52
2022/06/19 03:55:44;;;;;;;18.27;4.23;;;14.10;99.90;;;;;;5031659;28;20195;-52
2022/06/19 03:58:10;;;;;;;26.20;4.20;;;14.10;99.90;;;;;;5031159;28;20370;-52
2022/06/19 04:00:39;;;;;;;28.27;4.53;;;14.20;99.90;;;;;;5034056;28;20509;-52
2022/06/19 04:03:05;;;;;;;16.57;4.23;;;14.30;99.90;;;;;;5033846;28;20594;-52
2022/06/19 04:05:31;;;;;;;24.23;4.73;;;14.30;99.90;;;;;;5028428;28;20474;-52
2022/06/19 04:07:58;;;;;;;25.23;4.80;;;14.40;99.90;;;;;;5025258;28;21339;-52
2022/06/19 04:10:24;;;;;;;26.03;4.40;;;14.50;99.90;;;;;;5028342;28;20533;-52
2022/06/19 04:12:50;;;;;;;22.73;4.00;;;14.50;99.90;;;;;;5035470;28;20842;-52
2022/06/19 04:15:15;;;;;;;20.73;4.03;;;14.60;99.90;;;;;;5031633;28;20470;-52
2022/06/19 04:17:41;;;;;;;11.67;3.50;;;14.60;99.90;;;;;;5033882;28;20595;-53
2022/06/19 04:20:09;;;;;;;29.33;4.70;;;14.60;99.90;;;;;;5032506;28;20823;-52
2022/06/19 04:22:36;;;;;;;23.03;4.80;;;14.50;99.90;;;;;;5033494;28;20519;-52
2022/06/19 04:25:02;;;;;;;25.33;4.47;;;14.60;99.90;;;;;;5033742;28;20427;-52
2022/06/19 04:27:28;;;;;;;13.37;4.50;;;14.60;99.90;;;;;;5043066;28;20468;-52
2022/06/19 04:29:54;;;;;;;18.57;3.57;;;14.60;99.90;;;;;;5032748;28;20429;-52
2022/06/19 04:32:20;;;;;;;16.07;3.93;;;14.70;99.90;;;;;;5043931;28;20518;-52
2022/06/19 04:34:45;;;;;;;16.70;4.00;;;14.70;99.90;;;;;;5036081;28;20713;-52
2022/06/19 04:37:11;;;;;;;18.67;5.00;;;14.80;99.90;;;;;;5036161;28;20644;-52
2022/06/19 04:39:36;;;;;;;25.23;7.00;;;14.80;99.90;;;;;;5033286;28;20191;-52
2022/06/19 04:42:04;;;;;;;20.17;4.53;;;14.80;99.90;;;;;;5041954;28;20241;-51
2022/06/19 04:44:30;;;;;;;16.10;3.63;;;14.90;99.90;;;;;;5066873;28;20620;-52
2022/06/19 04:46:55;;;;;;;19.23;4.43;;;15.00;99.90;;;;;;5036607;28;20468;-51
2022/06/19 04:49:21;;;;;;;15.80;3.93;;;15.00;99.90;;;;;;5037818;28;20200;-52
2022/06/19 04:51:47;;;;;;;17.90;4.10;;;15.10;99.90;;;;;;5041278;28;20246;-52
2022/06/19 04:54:13;;;;;;;27.90;4.83;;;15.20;99.90;;;;;;5041276;28;20186;-52
2022/06/19 04:56:39;;;;;;;19.53;4.53;;;15.20;99.90;;;;;;5036211;28;20187;-52
2022/06/19 04:59:06;;;;;;;20.67;4.37;;;15.40;99.90;;;;;;5040427;28;20961;-52
2022/06/19 05:01:37;;;;;;;25.17;4.53;;;15.50;99.90;;;;;;5042156;28;20187;-52
2022/06/19 05:04:06;;;;;;;27.83;5.00;;;15.70;99.90;;;;;;5033301;28;20442;-51
2022/06/19 05:06:32;;;;;;;16.17;3.80;;;15.80;99.90;;;;;;5039108;28;21190;-52
2022/06/19 05:08:58;;;;;;;15.33;4.70;;;16.00;99.90;;;;;;5023680;28;20452;-52
2022/06/19 05:11:25;;;;;;;16.33;4.03;;;15.90;99.90;;;;;;5031894;28;20862;-51
2022/06/19 05:13:51;;;;;;;18.00;4.87;;;15.90;99.90;;;;;;5038301;28;20589;-52
2022/06/19 05:16:21;;;;;;;22.10;4.63;;;15.90;99.90;;;;;;5033088;28;20457;-52
2022/06/19 05:18:48;;;;;;;31.50;5.00;;;15.80;99.90;;;;;;5027147;28;20469;-52
2022/06/19 05:21:13;;;;;;;20.30;5.03;;;15.70;99.90;;;;;;5029864;28;21188;-52
2022/06/19 05:23:42;;;;;;;26.10;5.20;;;15.60;99.90;;;;;;5031844;28;20443;-51
2022/06/19 05:26:18;;;;;;;18.90;4.67;;;15.60;99.90;;;;;;5039888;28;20580;-52
2022/06/19 05:28:45;;;;;;;13.70;4.50;;;15.60;99.90;;;;;;5031380;28;20498;-52
2022/06/19 05:31:11;;;;;;;18.27;4.10;;;15.70;99.90;;;;;;5041360;28;20540;-52
2022/06/19 05:33:37;;;;;;;19.00;4.37;;;15.70;99.90;;;;;;5030707;28;20533;-52
2022/06/19 05:36:03;;;;;;;19.33;4.50;;;15.70;99.90;;;;;;5028987;28;20452;-52
2022/06/19 05:38:29;;;;;;;24.17;4.40;;;15.70;99.90;;;;;;5024746;28;20209;-52
2022/06/19 05:40:57;;;;;;;18.70;4.37;;;15.80;99.90;;;;;;5038051;28;20509;-52
2022/06/19 05:43:25;;;;;;;16.80;4.40;;;15.90;99.90;;;;;;5041180;28;20202;-52
2022/06/19 05:45:56;;;;;;;15.70;4.20;;;16.00;99.90;;;;;;5028205;28;20441;-52
2022/06/19 05:48:23;;;;;;;20.57;4.20;;;16.00;99.90;;;;;;5039657;28;20467;-52
2022/06/19 05:51:01;;;;;;;17.63;4.20;;;16.20;99.90;;;;;;5025781;28;20488;-52
2022/06/19 05:53:29;;;;;;;19.23;4.70;;;16.40;99.90;;;;;;5039221;28;20450;-52
2022/06/19 05:55:54;;;;;;;17.50;4.47;;;16.40;99.90;;;;;;5034077;28;20559;-52
2022/06/19 05:58:20;;;;;;;15.87;4.60;;;16.40;99.90;;;;;;5033129;28;20576;-52
2022/06/19 06:00:46;;;;;;;22.27;4.87;;;16.40;99.90;;;;;;5030660;28;20244;-52
2022/06/19 06:03:17;;;;;;;18.63;4.60;;;16.40;99.90;;;;;;5022428;28;20669;-52
2022/06/19 06:05:46;;;;;;;15.70;4.07;;;16.30;99.90;;;;;;5032585;28;20187;-52
2022/06/19 06:08:13;;;;;;;12.63;3.70;;;16.20;99.90;;;;;;5028353;28;20445;-51
2022/06/19 06:10:40;;;;;;;24.03;4.50;;;16.10;99.90;;;;;;5030695;28;20450;-52
2022/06/19 06:13:06;;;;;;;13.67;4.30;;;16.00;99.90;;;;;;5025258;28;20539;-52
2022/06/19 06:15:33;;;;;;;15.50;4.57;;;16.00;99.90;;;;;;5032355;28;20817;-52
2022/06/19 06:18:00;;;;;;;21.67;4.70;;;16.10;99.90;;;;;;5033885;28;20474;-52
2022/06/19 06:20:26;;;;;;;17.40;5.00;;;16.20;99.90;;;;;;5038187;28;20445;-52
2022/06/19 06:22:52;;;;;;;18.63;4.93;;;16.20;99.90;;;;;;5031014;28;20490;-52
2022/06/19 06:25:17;;;;;;;23.03;4.30;;;16.30;99.90;;;;;;5036341;28;20442;-52
2022/06/19 06:27:43;;;;;;;13.00;4.20;;;16.40;99.90;;;;;;5028525;28;20551;-52
2022/06/19 06:30:10;;;;;;;15.07;4.00;;;16.60;99.90;;;;;;5039531;28;20198;-51
2022/06/19 06:32:36;;;;;;;13.93;3.30;;;16.80;99.90;;;;;;5031588;28;20191;-52
2022/06/19 06:35:02;;;;;;;13.83;3.67;;;17.00;99.90;;;;;;5041226;28;20530;-52
2022/06/19 06:37:28;;;;;;;15.43;3.70;;;17.00;99.90;;;;;;5029958;28;20217;-52
2022/06/19 06:39:53;;;;;;;11.43;2.83;;;17.00;99.90;;;;;;5038654;28;20442;-52
2022/06/19 06:42:19;;;;;;;13.83;3.73;;;17.20;99.90;;;;;;5037810;28;20238;-52
2022/06/19 06:44:44;;;;;;;14.13;2.93;;;17.30;99.90;;;;;;5023634;28;20260;-51
2022/06/19 06:47:10;;;;;;;19.00;3.93;;;17.20;99.90;;;;;;5043232;28;20616;-52
2022/06/19 06:49:36;;;;;;;7.13;2.60;;;17.20;99.90;;;;;;5027061;28;20191;-52
2022/06/19 06:52:01;;;;;;;13.00;3.23;;;17.30;99.90;;;;;;5026272;28;20186;-52
2022/06/19 06:54:27;;;;;;;11.20;3.00;;;17.50;99.90;;;;;;5036446;28;20580;-52
2022/06/19 06:56:55;;;;;;;7.67;3.00;;;17.70;99.90;;;;;;5035274;28;21062;-53
2022/06/19 06:59:21;;;;;;;12.13;2.90;;;17.90;99.90;;;;;;5034198;28;20190;-52
2022/06/19 07:01:46;;;;;;;12.27;2.80;;;17.90;99.90;;;;;;5022745;28;20438;-52
2022/06/19 07:04:12;;;;;;;10.37;2.80;;;18.00;99.90;;;;;;5028104;28;20353;-51
2022/06/19 07:06:37;;;;;;;15.90;3.50;;;18.20;99.90;;;;;;5029120;28;20230;-52
2022/06/19 07:09:04;;;;;;;10.80;2.80;;;18.40;99.90;;;;;;5039360;28;20190;-52
2022/06/19 07:11:39;;;;;;;8.50;2.63;;;18.40;99.90;;;;;;5035172;28;20561;-52
2022/06/19 07:14:06;;;;;;;15.37;3.50;;;18.40;99.90;;;;;;5028907;28;20485;-51
2022/06/19 07:16:31;;;;;;;10.03;3.03;;;18.60;99.90;;;;;;5029107;28;20454;-52
2022/06/19 07:18:57;;;;;;;10.47;2.57;;;18.60;99.90;;;;;;5036491;28;21387;-52
2022/06/19 07:21:23;;;;;;;6.13;2.50;;;18.50;99.90;;;;;;5036886;28;20621;-52
2022/06/19 07:23:48;;;;;;;9.83;2.50;;;18.50;99.90;;;;;;5030513;28;20202;-52
2022/06/19 07:26:16;;;;;;;4.07;2.10;;;18.60;99.90;;;;;;5036620;28;20187;-52
2022/06/19 07:28:43;;;;;;;8.13;2.00;;;18.60;99.90;;;;;;5041352;28;20219;-52
2022/06/19 07:31:09;;;;;;;6.00;2.30;;;18.80;99.90;;;;;;5022416;28;20437;-53
2022/06/19 07:33:35;;;;;;;7.40;2.57;;;19.10;99.90;;;;;;5028783;28;20496;-52
2022/06/19 07:36:02;;;;;;;8.50;2.60;;;19.40;99.90;;;;;;5023954;28;20529;-51
2022/06/19 07:38:27;;;;;;;9.20;2.23;;;19.50;99.90;;;;;;5040454;28;20473;-52
2022/06/19 07:40:53;;;;;;;10.90;2.50;;;19.40;99.90;;;;;;5029642;28;20449;-51
2022/06/19 07:43:19;;;;;;;7.63;2.33;;;19.40;99.90;;;;;;5027891;28;20206;-52
2022/06/19 07:45:44;;;;;;;7.33;2.67;;;19.40;99.90;;;;;;5039419;28;20194;-51
2022/06/19 07:50:55;;;;;;;11.03;3.10;;;19.90;99.90;;;;;;5041720;28;20535;-52
2022/06/19 07:53:21;;;;;;;5.00;1.80;;;20.10;99.90;;;;;;5036137;28;20488;-51
2022/06/19 07:55:47;;;;;;;7.90;3.97;;;20.00;99.90;;;;;;5043081;28;20874;-51
2022/06/19 07:58:13;;;;;;;11.83;2.30;;;19.80;99.90;;;;;;5022920;28;20207;-51
2022/06/19 08:00:38;;;;;;;5.93;2.40;;;19.60;99.90;;;;;;5037311;28;20481;-51
2022/06/19 08:03:05;;;;;;;3.30;1.80;;;19.60;99.90;;;;;;5030961;28;20320;-52
2022/06/19 08:05:33;;;;;;;6.70;2.13;;;19.80;99.90;;;;;;5031828;28;20191;-52
2022/06/19 08:08:02;;;;;;;6.50;1.90;;;20.40;99.90;;;;;;5027811;28;20454;-52
2022/06/19 08:10:34;;;;;;;5.27;2.00;;;20.70;99.90;;;;;;5042884;28;21113;-51
2022/06/19 08:13:00;;;;;;;7.17;2.43;;;21.00;99.90;;;;;;5039613;28;20790;-51
2022/06/19 08:15:26;;;;;;;4.57;1.90;;;21.10;99.90;;;;;;5045049;28;20428;-51
2022/06/19 08:17:52;;;;;;;6.40;2.00;;;21.20;99.90;;;;;;5035066;28;20233;-51
2022/06/19 08:20:19;;;;;;;4.13;1.80;;;21.40;99.90;;;;;;5043262;28;20414;-51
2022/06/19 08:22:45;;;;;;;6.87;2.00;;;21.30;99.90;;;;;;5036699;28;20187;-51
2022/06/19 08:25:12;;;;;;;6.77;2.50;;;21.00;99.90;;;;;;5045820;28;20848;-53
2022/06/19 08:27:41;;;;;;;6.10;2.20;;;20.70;99.90;;;;;;5044488;28;20194;-51
2022/06/19 08:30:11;;;;;;;5.43;1.80;;;20.40;99.90;;;;;;5035536;28;20493;-52
2022/06/19 08:32:37;;;;;;;7.30;2.23;;;20.20;99.90;;;;;;5040911;28;20443;-51
2022/06/19 08:35:03;;;;;;;6.57;2.07;;;20.00;99.90;;;;;;5039491;28;20433;-51
2022/06/19 08:37:31;;;;;;;9.63;2.03;;;19.90;99.90;;;;;;5037659;28;20276;-51
2022/06/19 08:39:57;;;;;;;6.93;2.40;;;19.70;99.90;;;;;;5038839;28;20465;-51
2022/06/19 08:42:32;;;;;;;5.90;2.00;;;19.60;99.90;;;;;;5040964;28;20471;-50
2022/06/19 08:45:16;;;;;;;8.27;2.00;;;19.40;99.90;;;;;;5045120;28;20193;-51
2022/06/19 08:48:06;;;;;;;6.40;1.90;;;19.30;99.90;;;;;;5042030;28;20431;-51
2022/06/19 08:50:47;;;;;;;10.53;2.00;;;19.50;99.90;;;;;;5034533;28;20428;-50
2022/06/19 08:53:19;;;;;;;5.33;1.80;;;20.10;99.90;;;;;;5038705;28;20431;-57
2022/06/19 08:56:16;;;;;;;4.33;1.77;;;20.80;99.90;;;;;;5041074;28;20417;-50
2022/06/19 08:58:56;;;;;;;7.60;2.43;;;21.00;99.90;;;;;;5031209;28;21209;-50
2022/06/19 09:01:37;;;;;;;6.30;2.20;;;20.90;99.90;;;;;;5031484;28;20521;-50
2022/06/19 09:07:13;;;;;;;5.30;2.33;;;20.80;99.90;;;;;;5025322;28;20464;-50
2022/06/19 09:09:50;;;;;;;6.00;1.97;;;21.10;99.90;;;;;;5041623;28;20525;-50
2022/06/19 09:12:24;;;;;;;7.60;2.00;;;21.30;99.90;;;;;;5038909;28;20436;-50
2022/06/19 09:15:31;;;;;;;7.97;2.60;;;21.10;99.90;;;;;;5037543;28;20480;-50
2022/06/19 09:18:12;;;;;;;3.87;2.20;;;20.90;99.90;;;;;;5001506;28;20537;-50
2022/06/19 09:21:10;;;;;;;6.43;2.53;;;21.00;99.90;;;;;;5017657;28;20529;-50
2022/06/19 09:24:00;;;;;;;9.93;2.43;;;21.20;99.90;;;;;;5039152;28;20429;-50
2022/06/19 09:26:28;;;;;;;3.77;1.73;;;21.70;99.90;;;;;;5028170;28;20470;-50
2022/06/19 09:29:06;;;;;;;6.67;2.00;;;22.10;99.90;;;;;;5039693;28;20448;-51
2022/06/19 09:31:53;;;;;;;7.13;3.70;;;22.20;99.90;;;;;;5037409;28;20937;-50
2022/06/19 09:34:52;;;;;;;9.50;3.67;;;22.10;99.90;;;;;;5040254;28;20438;-50
2022/06/19 09:37:28;;;;;;;5.80;2.60;;;21.70;99.90;;;;;;5025931;28;20841;-50
2022/06/19 09:40:23;;;;;;;7.40;1.80;;;21.40;99.90;;;;;;5044356;28;20428;-51
2022/06/19 09:43:06;;;;;;;9.03;2.50;;;21.20;99.90;;;;;;5035166;28;20971;-50
2022/06/19 09:46:20;;;;;;;6.07;2.27;;;20.90;99.90;;;;;;5022744;28;20579;-51
2022/06/19 09:49:21;;;;;;;6.23;2.33;;;20.50;99.90;;;;;;5045552;28;20452;-51
2022/06/19 09:52:12;;;;;;;6.13;2.60;;;20.10;99.90;;;;;;5014192;28;20459;-51
2022/06/19 09:54:40;;;;;;;6.30;2.50;;;19.90;99.90;;;;;;5035057;28;20535;-51
2022/06/19 09:57:22;;;;;;;9.00;2.87;;;19.60;99.90;;;;;;5070873;28;20437;-50
2022/06/19 10:00:10;;;;;;;10.93;2.97;;;19.30;99.90;;;;;;5035297;28;20425;-50
2022/06/19 10:02:48;;;;;;;7.33;3.07;;;18.90;99.90;;;;;;5037416;28;20425;-51
2022/06/19 10:05:28;;;;;;;8.53;3.33;;;18.80;99.90;;;;;;5020912;28;20445;-50
2022/06/19 10:08:05;;;;;;;10.03;3.20;;;18.80;99.90;;;;;;5031286;28;21110;-50
2022/06/19 10:10:40;;;;;;;5.53;2.77;;;18.90;99.90;;;;;;5027894;28;20454;-51
2022/06/19 10:13:37;;;;;;;7.20;2.90;;;18.90;99.90;;;;;;5035756;28;20478;-50
2022/06/19 10:16:15;;;;;;;8.60;3.10;;;18.80;99.90;;;;;;5043979;28;20563;-50
2022/06/19 10:18:47;;;;;;;6.20;2.13;;;18.70;99.90;;;;;;5042393;28;20946;-50
2022/06/19 10:24:46;;;;;;;10.13;3.13;;;18.40;99.90;;;;;;5022395;28;20514;-50
2022/06/19 10:27:14;;;;;;;8.03;3.13;;;18.10;99.90;;;;;;5029698;28;20440;-51
2022/06/19 10:29:58;;;;;;;6.20;2.40;;;17.90;99.90;;;;;;5037562;28;20526;-50
2022/06/19 10:32:53;;;;;;;22.27;5.17;;;17.80;99.90;;;;;;5033865;28;20432;-51
2022/06/19 10:35:35;;;;;;;9.47;3.27;;;17.70;99.90;;;;;;5041015;28;20425;-51
2022/06/19 10:38:19;;;;;;;10.70;3.80;;;17.70;99.90;;;;;;5042717;28;20479;-50
2022/06/19 10:41:08;;;;;;;10.07;3.10;;;17.80;99.90;;;;;;5033401;28;20413;-50
2022/06/19 10:43:50;;;;;;;8.30;2.63;;;17.80;99.90;;;;;;5039198;28;20417;-50
2022/06/19 10:46:17;;;;;;;6.00;2.73;;;17.80;99.90;;;;;;5036214;28;20432;-51
2022/06/19 10:48:52;;;;;;;9.57;3.10;;;17.80;99.90;;;;;;5041742;28;20930;-50
2022/06/19 10:51:27;;;;;;;10.37;3.30;;;18.00;99.90;;;;;;5027259;28;20478;-51
2022/06/19 10:54:14;;;;;;;17.57;3.07;;;18.00;99.90;;;;;;5023275;28;20417;-51
2022/06/19 10:56:46;;;;;;;10.33;3.17;;;18.00;99.90;;;;;;5035868;28;20448;-50
2022/06/19 10:59:13;;;;;;;10.10;3.00;;;18.10;99.90;;;;;;5033455;28;20998;-50
2022/06/19 11:04:50;;;;;;;10.10;3.07;;;18.20;99.90;;;;;;5037212;28;20849;-50
2022/06/19 11:07:18;;;;;;;13.53;2.80;;;18.20;99.90;;;;;;5024976;28;20472;-50
2022/06/19 11:09:50;;;;;;;10.10;3.73;;;18.10;99.90;;;;;;5041065;28;20985;-51
2022/06/19 11:12:21;;;;;;;10.30;3.63;;;18.10;99.90;;;;;;5028705;28;20444;-51
2022/06/19 11:14:54;;;;;;;8.30;3.40;;;18.10;99.90;;;;;;5043877;28;20962;-50
2022/06/19 11:17:32;;;;;;;11.37;3.47;;;18.10;99.90;;;;;;5034828;28;20430;-51
2022/06/19 11:19:57;;;;;;;8.57;3.40;;;18.20;99.90;;;;;;5036396;28;21065;-51
2022/06/19 11:22:39;;;;;;;7.33;2.67;;;18.20;99.90;;;;;;5047338;28;20424;-51
2022/06/19 11:25:19;;;;;;;11.50;3.30;;;18.20;99.90;;;;;;5036060;28;20341;-51
2022/06/19 11:27:59;;;;;;;12.20;3.80;;;18.30;99.90;;;;;;5029721;28;20447;-51
2022/06/19 11:30:50;;;;;;;12.23;3.27;;;18.30;99.90;;;;;;5030204;28;20445;-51
2022/06/19 11:33:36;;;;;;;8.80;3.37;;;18.20;99.90;;;;;;5028359;28;20467;-51
2022/06/19 11:36:08;;;;;;;9.33;3.17;;;18.10;99.90;;;;;;5034966;28;20518;-51
2022/06/19 11:38:40;;;;;;;11.00;3.57;;;18.00;99.90;;;;;;5035110;28;20457;-55
2022/06/19 11:41:21;;;;;;;9.33;3.67;;;17.90;99.90;;;;;;5035535;28;20443;-51
2022/06/19 11:44:03;;;;;;;13.20;3.70;;;17.90;99.90;;;;;;5036976;28;20463;-51
2022/06/19 11:46:30;;;;;;;13.67;3.10;;;18.10;99.90;;;;;;5034564;28;20433;-51
2022/06/19 11:49:15;;;;;;;10.30;3.87;;;18.00;99.90;;;;;;5037419;28;20425;-51
2022/06/19 11:51:44;;;;;;;12.90;3.93;;;18.10;99.90;;;;;;5030020;28;20556;-51
2022/06/19 11:54:13;;;;;;;16.10;3.73;;;18.10;99.90;;;;;;5035519;28;20942;-51
2022/06/19 11:56:40;;;;;;;15.37;3.80;;;18.10;99.90;;;;;;5037584;28;20453;-51
2022/06/19 11:59:34;;;;;;;12.77;4.20;;;18.00;99.90;;;;;;5043559;28;20479;-51
2022/06/19 12:02:00;;;;;;;14.27;4.60;;;17.80;99.90;;;;;;5039638;28;20452;-52
2022/06/19 12:04:39;;;;;;;14.17;3.70;;;17.70;99.90;;;;;;5037578;28;20790;-51
2022/06/19 12:07:15;;;;;;;8.13;3.87;;;17.50;99.90;;;;;;5042193;28;20202;-51
2022/06/19 12:09:44;;;;;;;12.80;4.13;;;17.30;99.90;;;;;;5048621;28;20581;-51
2022/06/19 12:12:18;;;;;;;14.43;4.20;;;17.00;99.90;;;;;;5039795;28;20427;-52
2022/06/19 12:14:47;;;;;;;13.50;4.80;;;16.90;99.90;;;;;;5035265;28;20472;-52
2022/06/19 12:17:20;;;;;;;19.03;4.87;;;16.70;99.90;;;;;;5032321;28;20444;-52
2022/06/19 12:20:07;;;;;;;18.30;4.73;;;16.70;99.90;;;;;;5038428;28;20421;-52
2022/06/19 12:22:48;;;;;;;11.20;4.57;;;16.70;99.90;;;;;;5041923;28;21199;-52
2022/06/19 12:25:33;;;;;;;19.23;5.27;;;16.60;99.90;;;;;;5030234;28;20781;-52
2022/06/19 12:28:13;;;;;;;14.40;4.77;;;16.50;99.90;;;;;;5024974;28;21306;-52
2022/06/19 12:31:00;;;;;;;15.10;5.80;;;16.50;99.90;;;;;;5034718;28;20912;-52
2022/06/19 12:33:37;;;;;;;17.80;5.60;;;16.50;99.90;;;;;;5043258;28;20428;-52
2022/06/19 12:36:03;;;;;;;18.17;5.10;;;16.60;99.90;;;;;;5034610;28;20429;-52
2022/06/19 12:38:31;;;;;;;20.03;6.10;;;16.60;99.90;;;;;;5040301;28;20461;-53
2022/06/19 12:41:21;;;;;;;13.10;4.60;;;16.40;99.90;;;;;;5029111;28;20447;-53
2022/06/19 12:44:02;;;;;;;16.87;4.93;;;16.30;99.90;;;;;;5259027;22;20508;-54
2022/06/19 12:46:36;;;;;;;11.87;5.87;;;16.20;99.90;;;;;;5027732;28;20438;-53
2022/06/19 12:49:20;;;;;;;21.07;6.03;;;16.10;99.90;;;;;;5026451;28;20452;-54
2022/06/19 12:52:02;;;;;;;19.37;5.70;;;16.10;1.00;;;;;;5030958;28;21086;-54
2022/06/19 12:54:31;;;;;;;17.60;5.30;;;16.00;1.00;;;;;;5032661;28;20430;-53
2022/06/19 12:57:07;;;;;;;11.83;5.07;;;15.90;1.00;;;;;;5032296;28;20538;-53
2022/06/19 13:00:01;;;;;;;21.10;7.43;;;15.90;1.00;;;;;;5028415;28;20481;-53
2022/06/19 13:02:52;;;;;;;14.63;5.93;;;15.90;1.00;;;;;;5030968;28;20797;-53
2022/06/19 13:05:36;;;;;;;17.83;5.70;;;16.00;1.00;;;;;;5029866;28;20448;-53
2022/06/19 13:08:28;;;;;;;18.60;6.97;;;15.90;1.00;;;;;;5031810;28;20467;-53
2022/06/19 13:11:10;;;;;;;13.80;5.10;;;16.00;1.00;;;;;;5030927;28;20475;-53
2022/06/19 13:13:52;;;;;;;22.07;5.73;;;16.00;1.00;;;;;;5032218;28;20434;-53
2022/06/19 13:16:22;;;;;;;16.80;6.40;;;16.10;1.00;;;;;;5031665;28;20436;-53